Atlantic - Newfoundland: Past 24 Hour Conditions

 

North Cape

09:00 PM ADT 23 September 2014
This table is a summary of hourly weather conditions for the past 24 hours.
Date / Time
(ADT)
Wind(knots) Conditions Visibility(km) Pressure(kPa) Air tempC) Relative humidity(%) Dew pointC)
23 September 2014
21:00 WNW 26 N/A N/A 102.0 12 61 5
20:00 WNW 22 N/A N/A 101.9 13 59 5
19:00 WNW 20 gust 25 N/A N/A 101.8 13 63 6
18:00 W 17 gust 22 N/A N/A 101.7 13 61 6
17:00 W 13 N/A N/A 101.7 13 63 6
16:00 W 13 gust 19 N/A N/A 101.6 12 62 5
15:00 W 15 gust 20 N/A N/A 101.6 11 63 5
14:00 W 20 N/A N/A 101.6 11 59 3
13:00 WNW 21 gust 28 N/A N/A 101.6 11 63 4
12:00 WNW 23 N/A N/A 101.5 11 69 5
11:00 WNW 24 gust 31 N/A N/A 101.4 11 68 5
10:00 WNW 26 gust 34 N/A N/A 101.4 11 70 5
9:00 W 27 gust 32 N/A N/A 101.3 11 69 5
8:00 W 25 gust 32 N/A N/A 101.2 11 72 6
7:00 W 26 gust 31 N/A N/A 101.1 11 72 6
6:00 W 27 N/A N/A 101.0 12 71 6
5:00 W 27 gust 32 N/A N/A 100.9 12 69 6
4:00 W 27 N/A N/A 100.8 12 69 6
3:00 W 24 gust 32 N/A N/A 100.7 12 74 8
2:00 W 27 gust 35 N/A N/A 100.6 12 73 8
1:00 WNW 31 gust 37 N/A N/A 100.5 13 71 8
0:00 W 28 gust 35 N/A N/A 100.4 13 73 8
22 September 2014
23:00 W 26 gust 37 N/A N/A 100.2 14 72 9
22:00 WSW 31 gust 39 N/A N/A 100.1 15 72 10
21:00 WSW 30 gust 37 N/A N/A 99.9 16 72 11
 
Map of Atlantic - Newfoundland marine weather areas Southwestern Grand Banks - 44138 Banquereau - 44139 Tail of the Bank - 44140 Nickerson Bank - 44251 Northeast Burgeo Bank - 44255 Blanc-Sablon Airport Cap Whittle Chevery Natashquan Airport Heath Point Miscou Island Grand Étang Ingonish Beach North Mountain St.Paul Island J.A. Douglas McCurdy Sydney Airport Charlottetown Airport East Point North Cape Argentia Bonavista Burgeo Cape Race Corner Brook Daniel's Harbour Englee Ferolle Point La Scie Port aux Basques Rocky Harbour Sagona Island St. Anthony Airport St. John's Int'l Airport St. Lawrence Stephenville Airport Twillingate Winterland Wreckhouse Cartwright Airport Mary's Harbour Grates Cove Pool's Island Marticot Island Long Pond Îles de la Madeleine Airport
Legend: buoyBuoy land stationLand Station